createdAt,value
2022-09-23T00:00:07.520Z,9.00
2022-09-23T00:01:10.242Z,8.98
2022-09-23T00:02:11.701Z,8.96
2022-09-23T00:03:13.890Z,8.93
2022-09-23T00:04:15.229Z,8.90
2022-09-23T00:05:16.575Z,8.89
2022-09-23T00:06:19.396Z,8.88
2022-09-23T00:07:20.706Z,8.87
2022-09-23T00:08:22.087Z,8.85
2022-09-23T00:09:23.384Z,8.83
2022-09-23T00:10:25.753Z,8.84
2022-09-23T00:11:28.192Z,8.86
2022-09-23T00:12:29.531Z,8.85
2022-09-23T00:13:30.883Z,8.81
2022-09-23T00:14:32.182Z,8.79
2022-09-23T00:15:38.082Z,8.78
2022-09-23T00:16:39.460Z,8.81
2022-09-23T00:17:40.810Z,8.81
2022-09-23T00:18:42.474Z,8.79
2022-09-23T00:19:43.803Z,8.78
2022-09-23T00:20:45.107Z,8.82
2022-09-23T00:21:46.418Z,8.78
2022-09-23T00:22:47.743Z,8.78
2022-09-23T00:23:49.488Z,8.77
2022-09-23T00:24:50.817Z,8.75
2022-09-23T00:25:55.954Z,8.73
2022-09-23T00:26:57.279Z,8.73
2022-09-23T00:27:58.602Z,8.70
2022-09-23T00:28:59.947Z,8.68
2022-09-23T00:30:02.155Z,8.65
2022-09-23T00:31:07.581Z,8.65
2022-09-23T00:32:09.025Z,8.63
2022-09-23T00:33:10.385Z,8.61
2022-09-23T00:34:11.850Z,8.62
2022-09-23T00:35:13.210Z,8.62
2022-09-23T00:36:15.842Z,8.61
2022-09-23T00:37:17.239Z,8.60
2022-09-23T00:38:18.604Z,8.59
2022-09-23T00:39:20.017Z,8.56
2022-09-23T00:40:21.417Z,8.55
2022-09-23T00:41:23.614Z,8.53
2022-09-23T00:42:24.999Z,8.51
2022-09-23T00:43:43.385Z,8.51
2022-09-23T00:44:44.702Z,8.49
2022-09-23T00:45:48.408Z,8.48
2022-09-23T00:46:50.185Z,8.47
2022-09-23T00:47:59.384Z,8.46
2022-09-23T00:49:06.807Z,8.47
2022-09-23T00:50:11.032Z,8.46
2022-09-23T00:51:15.121Z,8.44
2022-09-23T00:52:17.973Z,8.45
2022-09-23T00:53:21.646Z,8.41
2022-09-23T00:54:24.397Z,8.37
2022-09-23T00:55:32.476Z,8.36
2022-09-23T00:56:34.837Z,8.33
2022-09-23T00:57:37.971Z,8.32
2022-09-23T00:58:40.869Z,8.31
2022-09-23T00:59:43.212Z,8.28
2022-09-23T01:00:44.634Z,8.26
2022-09-23T01:01:46.445Z,8.24
2022-09-23T01:02:48.059Z,8.24
2022-09-23T01:03:50.097Z,8.22
2022-09-23T01:04:51.495Z,8.21
2022-09-23T01:05:53.021Z,8.20
2022-09-23T01:06:54.349Z,8.17
2022-09-23T01:07:57.218Z,8.13
2022-09-23T01:08:58.562Z,8.14
2022-09-23T01:10:00.792Z,8.10
2022-09-23T01:11:05.459Z,8.12
2022-09-23T01:12:09.854Z,8.10
2022-09-23T01:13:37.384Z,8.10
2022-09-23T01:14:48.764Z,8.06
2022-09-23T01:15:55.895Z,8.05
2022-09-23T01:17:00.286Z,8.09
2022-09-23T01:18:01.685Z,8.09
2022-09-23T01:19:16.364Z,8.06
2022-09-23T01:20:27.258Z,8.04
2022-09-23T01:21:31.434Z,8.06
2022-09-23T01:22:32.751Z,8.05
2022-09-23T01:23:40.106Z,8.01
2022-09-23T01:25:09.469Z,7.99
2022-09-23T01:26:21.254Z,7.96
2022-09-23T01:27:31.714Z,7.95
2022-09-23T01:28:41.029Z,7.92
2022-09-23T01:30:01.151Z,7.92
2022-09-23T01:31:05.151Z,7.90
2022-09-23T01:32:12.652Z,7.90
2022-09-23T01:33:21.563Z,7.90
2022-09-23T01:34:32.000Z,7.92
2022-09-23T01:35:39.421Z,7.92
2022-09-23T01:36:48.102Z,7.91
2022-09-23T01:37:55.925Z,7.89
2022-09-23T01:39:00.893Z,7.89
2022-09-23T01:40:24.068Z,7.87
2022-09-23T01:41:32.914Z,7.86
2022-09-23T01:42:41.750Z,7.88
2022-09-23T01:43:48.327Z,7.89
2022-09-23T01:44:49.640Z,7.86
2022-09-23T01:45:54.171Z,7.86
2022-09-23T01:46:58.607Z,7.86
2022-09-23T01:48:10.249Z,7.85
2022-09-23T01:49:17.130Z,7.84
2022-09-23T01:50:20.604Z,7.86
2022-09-23T01:51:37.326Z,7.87
2022-09-23T01:52:40.248Z,7.83
2022-09-23T01:53:53.218Z,7.82
2022-09-23T01:54:54.579Z,7.80
2022-09-23T01:55:58.608Z,7.77
2022-09-23T01:57:04.174Z,7.75
2022-09-23T01:58:08.448Z,7.74
2022-09-23T01:59:36.390Z,7.73
2022-09-23T02:00:40.746Z,7.72
2022-09-23T02:01:45.184Z,7.69
2022-09-23T02:02:52.639Z,7.68
2022-09-23T02:04:05.957Z,7.66
2022-09-23T02:05:10.856Z,7.65
2022-09-23T02:06:34.319Z,7.64
2022-09-23T02:07:41.233Z,7.62
2022-09-23T02:08:45.032Z,7.61
2022-09-23T02:09:48.885Z,7.58
2022-09-23T02:10:57.059Z,7.56
2022-09-23T02:12:02.476Z,7.56
2022-09-23T02:13:08.509Z,7.58
2022-09-23T02:14:15.177Z,7.58
2022-09-23T02:15:19.067Z,7.54
2022-09-23T02:16:30.076Z,7.53
2022-09-23T02:17:34.623Z,7.52
2022-09-23T02:18:53.088Z,7.51
2022-09-23T02:19:56.954Z,7.51
2022-09-23T02:21:04.651Z,7.51
2022-09-23T02:22:12.853Z,7.50
2022-09-23T02:23:19.506Z,7.51
2022-09-23T02:24:24.393Z,7.52
2022-09-23T02:25:29.175Z,7.52
2022-09-23T02:26:34.776Z,7.50
2022-09-23T02:27:36.209Z,7.49
2022-09-23T02:28:43.254Z,7.48
2022-09-23T02:29:50.550Z,7.47
2022-09-23T02:30:58.051Z,7.46
2022-09-23T02:32:05.584Z,7.46
2022-09-23T02:33:24.505Z,7.49
2022-09-23T02:34:25.803Z,7.48
2022-09-23T02:35:32.770Z,7.47
2022-09-23T02:36:52.547Z,7.49
2022-09-23T02:37:56.769Z,7.46
2022-09-23T02:39:01.177Z,7.46
2022-09-23T02:40:21.452Z,7.45
2022-09-23T02:41:28.682Z,7.45
2022-09-23T02:42:38.314Z,7.46
2022-09-23T02:43:45.614Z,7.47
2022-09-23T02:44:47.307Z,7.45
2022-09-23T02:45:49.407Z,7.46
2022-09-23T02:46:51.418Z,7.46
2022-09-23T02:47:56.750Z,7.47
2022-09-23T02:49:08.644Z,7.46
2022-09-23T02:50:10.086Z,7.48
2022-09-23T02:51:12.668Z,7.51
2022-09-23T02:52:14.039Z,7.52
2022-09-23T02:53:15.368Z,7.56
2022-09-23T02:54:18.687Z,7.53
2022-09-23T02:55:21.268Z,7.50
2022-09-23T02:56:22.598Z,7.48
2022-09-23T02:57:24.077Z,7.47
2022-09-23T02:58:25.521Z,7.47
2022-09-23T02:59:27.010Z,7.43
2022-09-23T03:00:46.876Z,7.43
2022-09-23T03:01:53.968Z,7.41
2022-09-23T03:03:03.002Z,7.41
2022-09-23T03:04:07.048Z,7.45
2022-09-23T03:05:27.242Z,7.45
2022-09-23T03:06:31.045Z,7.44
2022-09-23T03:07:35.206Z,7.42
2022-09-23T03:08:41.431Z,7.39
2022-09-23T03:09:59.423Z,7.38
2022-09-23T03:11:06.426Z,7.41
2022-09-23T03:12:22.923Z,7.38
2022-09-23T03:13:29.173Z,7.36
2022-09-23T03:14:40.989Z,7.34
2022-09-23T03:15:51.807Z,7.32
2022-09-23T03:16:58.593Z,7.31
2022-09-23T03:18:02.624Z,7.31
2022-09-23T03:19:17.911Z,7.30
2022-09-23T03:20:23.750Z,7.30
2022-09-23T03:21:29.769Z,7.28
2022-09-23T03:22:37.490Z,7.25
2022-09-23T03:23:40.935Z,7.24
2022-09-23T03:24:44.268Z,7.26
2022-09-23T03:25:46.917Z,7.26
2022-09-23T03:26:48.801Z,7.27
2022-09-23T03:27:50.520Z,7.27
2022-09-23T03:28:52.431Z,7.26
2022-09-23T03:29:54.067Z,7.23
2022-09-23T03:30:56.199Z,7.24
2022-09-23T03:31:58.045Z,7.25
2022-09-23T03:32:59.575Z,7.24
2022-09-23T03:34:02.270Z,7.29
2022-09-23T03:35:04.981Z,7.34
2022-09-23T03:36:08.402Z,7.40
2022-09-23T03:37:25.158Z,7.41
2022-09-23T03:38:29.983Z,7.43
2022-09-23T03:39:34.412Z,7.43
2022-09-23T03:40:39.745Z,7.46
2022-09-23T03:41:44.995Z,7.48
2022-09-23T03:42:46.647Z,7.49
2022-09-23T03:43:48.462Z,7.52
2022-09-23T03:44:52.201Z,7.53
2022-09-23T03:45:54.063Z,7.55
2022-09-23T03:46:58.994Z,7.59
2022-09-23T03:48:00.563Z,7.60
2022-09-23T03:49:10.324Z,7.60
2022-09-23T03:50:12.710Z,7.63
2022-09-23T03:51:21.355Z,7.67
2022-09-23T03:52:23.557Z,7.71
2022-09-23T03:53:24.906Z,7.75
2022-09-23T03:54:26.233Z,7.76
2022-09-23T03:55:27.583Z,7.74
2022-09-23T03:56:28.899Z,7.72
2022-09-23T03:57:30.275Z,7.73
2022-09-23T03:58:31.610Z,7.72
2022-09-23T03:59:33.378Z,7.69
2022-09-23T04:00:34.821Z,7.68
2022-09-23T04:01:36.299Z,7.66
2022-09-23T04:02:37.641Z,7.62
2022-09-23T04:03:38.951Z,7.61
2022-09-23T04:04:40.272Z,7.60
2022-09-23T04:05:41.629Z,7.60
2022-09-23T04:06:43.054Z,7.58
2022-09-23T04:07:44.411Z,7.56
2022-09-23T04:08:45.722Z,7.56
2022-09-23T04:09:47.005Z,7.56
2022-09-23T04:10:50.718Z,7.54
2022-09-23T04:11:55.465Z,7.55
2022-09-23T04:12:56.783Z,7.57
2022-09-23T04:13:58.116Z,7.55
2022-09-23T04:14:59.484Z,7.54
2022-09-23T04:16:01.004Z,7.52
2022-09-23T04:17:02.382Z,7.48
2022-09-23T04:18:03.830Z,7.47
2022-09-23T04:19:05.248Z,7.47
2022-09-23T04:20:06.842Z,7.48
2022-09-23T04:21:08.261Z,7.46
2022-09-23T04:22:09.721Z,7.45
2022-09-23T04:23:11.021Z,7.44
2022-09-23T04:24:12.805Z,7.42
2022-09-23T04:25:14.103Z,7.42
2022-09-23T04:26:15.516Z,7.38
2022-09-23T04:27:16.848Z,7.35
2022-09-23T04:28:18.290Z,7.33
2022-09-23T04:29:20.917Z,7.33
2022-09-23T04:30:22.484Z,7.33
2022-09-23T04:31:24.272Z,7.31
2022-09-23T04:32:25.966Z,7.30
2022-09-23T04:33:27.935Z,7.27
2022-09-23T04:34:29.433Z,7.26
2022-09-23T04:35:30.865Z,7.24
2022-09-23T04:36:32.213Z,7.24
2022-09-23T04:37:33.570Z,7.22
2022-09-23T04:38:34.908Z,7.22
2022-09-23T04:39:36.233Z,7.21
2022-09-23T04:40:37.662Z,7.19
2022-09-23T04:41:39.078Z,7.19
2022-09-23T04:42:40.431Z,7.18
2022-09-23T04:43:42.436Z,7.21
2022-09-23T04:44:43.750Z,7.23
2022-09-23T04:45:45.245Z,7.21
2022-09-23T04:46:46.946Z,7.21
2022-09-23T04:47:48.447Z,7.21
2022-09-23T04:48:50.018Z,7.20
2022-09-23T04:49:51.538Z,7.20
2022-09-23T04:50:53.007Z,7.23
2022-09-23T04:51:54.508Z,7.21
2022-09-23T04:52:56.231Z,7.19
2022-09-23T04:53:57.885Z,7.21
2022-09-23T04:54:59.215Z,7.20
2022-09-23T04:56:04.619Z,7.22
2022-09-23T04:57:05.953Z,7.24
2022-09-23T04:58:07.353Z,7.22
2022-09-23T04:59:08.768Z,7.21
2022-09-23T05:00:10.607Z,7.25
2022-09-23T05:01:13.309Z,7.23
2022-09-23T05:02:14.700Z,7.22
2022-09-23T05:03:16.085Z,7.23
2022-09-23T05:04:17.575Z,7.20
2022-09-23T05:05:19.073Z,7.19
2022-09-23T05:06:20.453Z,7.18
2022-09-23T05:07:21.794Z,7.19
2022-09-23T05:08:23.119Z,7.18
2022-09-23T05:09:24.503Z,7.17
2022-09-23T05:10:25.839Z,7.17
2022-09-23T05:11:28.908Z,7.19
2022-09-23T05:12:30.272Z,7.17
2022-09-23T05:13:31.790Z,7.18
2022-09-23T05:14:33.143Z,7.17
2022-09-23T05:15:34.695Z,7.18
2022-09-23T05:16:36.063Z,7.18
2022-09-23T05:17:37.490Z,7.20
2022-09-23T05:18:39.749Z,7.21
2022-09-23T05:19:41.062Z,7.23
2022-09-23T05:20:42.383Z,7.24
2022-09-23T05:21:43.721Z,7.25
2022-09-23T05:22:45.134Z,7.28
2022-09-23T05:23:50.251Z,7.32
2022-09-23T05:24:51.763Z,7.32
2022-09-23T05:26:00.101Z,7.35
2022-09-23T05:27:01.547Z,7.35
2022-09-23T05:28:02.902Z,7.39
2022-09-23T05:29:05.051Z,7.42
2022-09-23T05:30:07.062Z,7.42
2022-09-23T05:31:18.655Z,7.45
2022-09-23T05:32:21.309Z,7.47
2022-09-23T05:33:22.640Z,7.47
2022-09-23T05:34:23.994Z,7.50
2022-09-23T05:35:25.294Z,7.53
2022-09-23T05:36:27.265Z,7.54
2022-09-23T05:37:28.604Z,7.55
2022-09-23T05:38:30.708Z,7.56
2022-09-23T05:39:32.047Z,7.59
2022-09-23T05:40:33.415Z,7.60
2022-09-23T05:41:34.924Z,7.65
2022-09-23T05:42:36.399Z,7.68
2022-09-23T05:43:37.822Z,7.73
2022-09-23T05:44:39.125Z,7.77
2022-09-23T05:45:40.509Z,7.77
2022-09-23T05:46:41.931Z,7.78
2022-09-23T05:47:43.334Z,7.83
2022-09-23T05:48:44.944Z,7.85
2022-09-23T05:49:59.262Z,7.86
2022-09-23T05:51:01.649Z,7.90
2022-09-23T05:52:03.038Z,7.94
2022-09-23T05:53:04.347Z,7.97
2022-09-23T05:54:06.057Z,7.99
2022-09-23T05:55:07.768Z,8.01
2022-09-23T05:56:09.242Z,8.04
2022-09-23T05:57:10.544Z,8.08
2022-09-23T05:58:12.370Z,8.12
2022-09-23T05:59:13.710Z,8.15
2022-09-23T06:00:15.084Z,8.21
2022-09-23T06:01:18.313Z,8.27
2022-09-23T06:02:19.697Z,8.33
2022-09-23T06:03:21.485Z,8.37
2022-09-23T06:04:22.876Z,8.40
2022-09-23T06:05:24.305Z,8.45
2022-09-23T06:06:36.628Z,8.48
2022-09-23T06:07:37.945Z,8.51
2022-09-23T06:08:39.286Z,8.52
2022-09-23T06:09:40.607Z,8.57
2022-09-23T06:10:43.174Z,8.64
2022-09-23T06:11:44.537Z,8.67
2022-09-23T06:12:45.921Z,8.70
2022-09-23T06:13:47.756Z,8.77
2022-09-23T06:14:49.062Z,8.79
2022-09-23T06:15:50.598Z,8.84
2022-09-23T06:16:51.941Z,8.90
2022-09-23T06:17:53.326Z,8.93
2022-09-23T06:18:54.908Z,8.96
2022-09-23T06:19:56.238Z,8.99
2022-09-23T06:21:00.265Z,9.02
2022-09-23T06:22:01.607Z,9.05
2022-09-23T06:23:07.334Z,9.10
2022-09-23T06:24:14.353Z,9.14
2022-09-23T06:25:17.383Z,9.17
2022-09-23T06:26:18.674Z,9.17
2022-09-23T06:27:20.187Z,9.21
2022-09-23T06:28:21.498Z,9.24
2022-09-23T06:29:22.804Z,9.31
2022-09-23T06:30:24.515Z,9.35
2022-09-23T06:31:25.946Z,9.38
2022-09-23T06:32:27.287Z,9.44
2022-09-23T06:33:36.319Z,9.49
2022-09-23T06:34:50.293Z,9.54
2022-09-23T06:36:11.586Z,9.56
2022-09-23T06:37:19.679Z,9.59
2022-09-23T06:38:21.769Z,9.64
2022-09-23T06:39:23.099Z,9.70
2022-09-23T06:40:24.557Z,9.76
2022-09-23T06:41:26.002Z,9.80
2022-09-23T06:42:30.507Z,9.82
2022-09-23T06:43:31.969Z,9.85
2022-09-23T06:44:33.346Z,9.90
2022-09-23T06:45:35.060Z,9.93
2022-09-23T06:46:36.477Z,9.96
2022-09-23T06:47:37.941Z,10.00
2022-09-23T06:48:42.777Z,10.04
2022-09-23T06:49:46.782Z,10.08
2022-09-23T06:50:48.198Z,10.13
2022-09-23T06:51:49.551Z,10.17
2022-09-23T06:52:54.807Z,10.17
2022-09-23T06:53:56.178Z,10.16
2022-09-23T06:54:57.511Z,10.18
2022-09-23T06:56:03.179Z,10.18
2022-09-23T06:57:04.510Z,10.21
2022-09-23T06:58:05.842Z,10.22
2022-09-23T06:59:09.156Z,10.23
2022-09-23T07:00:10.819Z,10.24
2022-09-23T07:01:13.445Z,10.26
2022-09-23T07:02:14.853Z,10.27
2022-09-23T07:03:16.382Z,10.29
2022-09-23T07:04:17.732Z,10.35
2022-09-23T07:05:19.051Z,10.34
2022-09-23T07:06:20.399Z,10.42
2022-09-23T07:07:21.715Z,10.45
2022-09-23T07:08:23.370Z,10.49
2022-09-23T07:09:24.720Z,10.52
2022-09-23T07:10:26.118Z,10.51
2022-09-23T07:11:27.438Z,10.60
2022-09-23T07:12:28.763Z,10.61
2022-09-23T07:13:30.527Z,10.65
2022-09-23T07:14:31.877Z,10.69
2022-09-23T07:15:33.275Z,10.73
2022-09-23T07:16:34.612Z,10.77
2022-09-23T07:17:35.986Z,10.83
2022-09-23T07:18:37.693Z,10.88
2022-09-23T07:19:39.137Z,10.95
2022-09-23T07:20:40.454Z,11.01
2022-09-23T07:21:41.877Z,11.03
2022-09-23T07:22:43.289Z,11.07
2022-09-23T07:23:45.939Z,11.14
2022-09-23T07:24:47.470Z,11.21
2022-09-23T07:25:48.792Z,11.25
2022-09-23T07:26:50.109Z,11.32
2022-09-23T07:27:51.446Z,11.37
2022-09-23T07:28:56.307Z,11.43
2022-09-23T07:29:57.683Z,11.50
2022-09-23T07:31:02.903Z,11.58
2022-09-23T07:32:12.951Z,11.65
2022-09-23T07:33:29.404Z,11.77
2022-09-23T07:34:32.641Z,11.83
2022-09-23T07:35:34.018Z,11.87
2022-09-23T07:36:35.390Z,11.98
2022-09-23T07:37:36.749Z,12.08
2022-09-23T07:38:42.765Z,12.14
2022-09-23T07:39:46.423Z,12.21
2022-09-23T07:40:47.868Z,12.22
2022-09-23T07:41:49.249Z,12.30
2022-09-23T07:42:50.696Z,12.34
2022-09-23T07:43:52.018Z,12.39
2022-09-23T07:44:53.315Z,12.40
2022-09-23T07:45:54.679Z,12.45
2022-09-23T07:46:56.073Z,12.45
2022-09-23T07:47:57.378Z,12.50
2022-09-23T07:48:58.930Z,12.53
2022-09-23T07:50:00.719Z,12.58
2022-09-23T07:51:09.621Z,12.61
2022-09-23T07:52:10.943Z,12.72
2022-09-23T07:53:12.301Z,12.73
2022-09-23T07:54:14.568Z,12.74
2022-09-23T07:55:20.270Z,12.74
2022-09-23T07:56:26.556Z,12.75
2022-09-23T07:57:27.905Z,12.80
2022-09-23T07:58:29.241Z,12.80
2022-09-23T07:59:30.578Z,12.82
2022-09-23T08:00:31.950Z,12.83
2022-09-23T08:01:35.359Z,12.83
2022-09-23T08:02:36.723Z,12.88
2022-09-23T08:03:38.893Z,12.93
2022-09-23T08:04:40.207Z,12.93
2022-09-23T08:05:41.642Z,12.95
2022-09-23T08:06:51.558Z,13.01
2022-09-23T08:07:52.967Z,13.05
2022-09-23T08:08:56.732Z,13.04
2022-09-23T08:09:58.069Z,13.03
2022-09-23T08:11:03.829Z,13.08
2022-09-23T08:12:05.421Z,13.11
2022-09-23T08:13:06.852Z,13.08
2022-09-23T08:14:08.985Z,13.05
2022-09-23T08:15:10.355Z,13.06
2022-09-23T08:16:11.824Z,13.08
2022-09-23T08:17:13.233Z,13.14
2022-09-23T08:18:14.593Z,13.15
2022-09-23T08:19:15.931Z,13.17
2022-09-23T08:20:17.314Z,13.19
2022-09-23T08:21:21.277Z,13.15
2022-09-23T08:22:22.595Z,13.19
2022-09-23T08:23:23.979Z,13.25
2022-09-23T08:24:25.861Z,13.33
2022-09-23T08:25:27.208Z,13.32
2022-09-23T08:26:28.748Z,13.32
2022-09-23T08:27:30.100Z,13.34
2022-09-23T08:28:31.781Z,13.36
2022-09-23T08:29:33.288Z,13.41
2022-09-23T08:30:34.845Z,13.48
2022-09-23T08:31:36.180Z,13.54
2022-09-23T08:32:37.518Z,13.60
2022-09-23T08:33:38.924Z,13.70
2022-09-23T08:34:40.295Z,13.75
2022-09-23T08:35:41.918Z,13.78
2022-09-23T08:36:43.540Z,13.81
2022-09-23T08:37:44.846Z,13.90
2022-09-23T08:38:46.218Z,13.90
2022-09-23T08:39:47.629Z,13.97
2022-09-23T08:40:49.374Z,14.05
2022-09-23T08:41:58.258Z,14.05
2022-09-23T08:43:00.462Z,14.11
2022-09-23T08:44:03.612Z,14.16
2022-09-23T08:45:07.621Z,14.20
2022-09-23T08:46:10.285Z,14.25
2022-09-23T08:47:21.147Z,14.26
2022-09-23T08:48:28.861Z,14.29
2022-09-23T08:49:32.777Z,14.35
2022-09-23T08:50:41.945Z,14.47
2022-09-23T08:51:46.805Z,14.49
2022-09-23T08:52:50.719Z,14.54
2022-09-23T08:53:52.191Z,14.59
2022-09-23T08:54:55.605Z,14.62
2022-09-23T08:55:58.602Z,14.65
2022-09-23T08:57:01.098Z,14.73
2022-09-23T08:58:24.533Z,14.75
2022-09-23T08:59:30.348Z,14.82
2022-09-23T09:00:40.217Z,14.83
2022-09-23T09:01:41.739Z,14.88
2022-09-23T09:02:43.311Z,14.91
2022-09-23T09:03:53.616Z,14.87
2022-09-23T09:04:58.018Z,14.85
2022-09-23T09:05:59.340Z,14.84
2022-09-23T09:07:31.950Z,14.88
2022-09-23T09:08:30.774Z,14.92
2022-09-23T09:09:51.300Z,14.89
2022-09-23T09:10:54.735Z,14.90
2022-09-23T09:12:01.235Z,14.93
2022-09-23T09:13:09.273Z,15.00
2022-09-23T09:14:14.894Z,15.02
2022-09-23T09:15:20.729Z,15.01
2022-09-23T09:16:58.996Z,15.05
2022-09-23T09:18:04.956Z,15.13
2022-09-23T09:19:09.074Z,15.16
2022-09-23T09:20:43.008Z,15.19
2022-09-23T09:21:46.611Z,15.22
2022-09-23T09:22:55.435Z,15.26
2022-09-23T09:23:59.999Z,15.24
2022-09-23T09:25:05.798Z,15.23
2022-09-23T09:26:11.708Z,15.22
2022-09-23T09:27:15.478Z,15.26
2022-09-23T09:28:35.059Z,15.34
2022-09-23T09:29:38.427Z,15.41
2022-09-23T09:30:41.062Z,15.47
2022-09-23T09:31:49.583Z,15.56
2022-09-23T09:32:54.023Z,15.48
2022-09-23T09:34:05.839Z,15.45
2022-09-23T09:35:18.551Z,15.46
2022-09-23T09:36:19.841Z,15.46
2022-09-23T09:37:33.131Z,15.51
2022-09-23T09:38:35.348Z,15.55
2022-09-23T09:39:37.070Z,15.59
2022-09-23T09:40:42.667Z,15.66
2022-09-23T09:41:51.162Z,15.70
2022-09-23T09:42:52.499Z,15.73
2022-09-23T09:43:54.445Z,15.77
2022-09-23T09:45:00.562Z,15.76
2022-09-23T09:46:20.810Z,15.80
2022-09-23T09:47:30.154Z,15.80
2022-09-23T09:48:37.966Z,15.84
2022-09-23T09:49:50.592Z,15.77
2022-09-23T09:50:52.956Z,15.77
2022-09-23T09:52:13.105Z,15.74
2022-09-23T09:53:19.961Z,15.76
2022-09-23T09:54:22.556Z,15.79
2022-09-23T09:55:26.378Z,15.79
2022-09-23T09:56:32.791Z,15.80
2022-09-23T09:57:38.980Z,15.85
2022-09-23T09:58:40.294Z,15.85
2022-09-23T09:59:41.984Z,15.92
2022-09-23T10:00:44.608Z,15.89
2022-09-23T10:01:46.361Z,15.97
2022-09-23T10:02:55.470Z,16.00
2022-09-23T10:03:59.555Z,15.98
2022-09-23T10:05:05.258Z,15.95
2022-09-23T10:06:13.667Z,15.98
2022-09-23T10:07:15.821Z,16.05
2022-09-23T10:08:23.182Z,16.09
2022-09-23T10:09:32.202Z,16.11
2022-09-23T10:10:33.930Z,16.13
2022-09-23T10:11:35.478Z,16.15
2022-09-23T10:12:43.864Z,16.15
2022-09-23T10:14:00.884Z,16.10
2022-09-23T10:15:02.316Z,16.12
2022-09-23T10:16:04.049Z,16.17
2022-09-23T10:17:06.430Z,16.16
2022-09-23T10:18:28.785Z,16.18
2022-09-23T10:19:32.061Z,16.23
2022-09-23T10:20:34.705Z,16.29
2022-09-23T10:21:36.822Z,16.28
2022-09-23T10:22:39.751Z,16.30
2022-09-23T10:23:45.223Z,16.30
2022-09-23T10:24:50.470Z,16.31
2022-09-23T10:26:02.318Z,16.33
2022-09-23T10:27:06.215Z,16.40
2022-09-23T10:28:26.066Z,16.47
2022-09-23T10:29:31.877Z,16.53
2022-09-23T10:30:33.315Z,16.51
2022-09-23T10:31:35.732Z,16.52
2022-09-23T10:32:42.994Z,16.50
2022-09-23T10:33:48.679Z,16.58
2022-09-23T10:34:55.181Z,16.63
2022-09-23T10:35:57.321Z,16.66
2022-09-23T10:37:14.401Z,16.67
2022-09-23T10:38:15.795Z,16.60
2022-09-23T10:39:17.106Z,16.59
2022-09-23T10:40:21.450Z,16.64
2022-09-23T10:41:39.993Z,16.69
2022-09-23T10:42:43.927Z,16.73
2022-09-23T10:44:11.199Z,16.74
2022-09-23T10:45:20.151Z,16.75
2022-09-23T10:46:28.716Z,16.77
2022-09-23T10:47:36.812Z,16.80
2022-09-23T10:48:53.126Z,16.86
2022-09-23T10:50:00.521Z,16.92
2022-09-23T10:51:07.470Z,16.92
2022-09-23T10:52:27.514Z,16.96
2022-09-23T10:53:44.587Z,17.00
2022-09-23T10:55:04.449Z,17.09
2022-09-23T10:56:05.824Z,17.17
2022-09-23T10:57:10.183Z,17.25
2022-09-23T10:58:17.743Z,17.26
2022-09-23T10:59:34.070Z,17.29
2022-09-23T11:00:41.450Z,17.32
2022-09-23T11:01:48.581Z,17.32
2022-09-23T11:03:00.664Z,17.31
2022-09-23T11:04:13.122Z,17.33
2022-09-23T11:05:27.569Z,17.23
2022-09-23T11:06:35.020Z,17.23
2022-09-23T11:07:59.829Z,17.22
2022-09-23T11:09:01.127Z,17.24
2022-09-23T11:10:41.872Z,17.25
2022-09-23T11:12:01.212Z,17.36
2022-09-23T11:13:17.627Z,17.43
2022-09-23T11:14:33.895Z,17.48
2022-09-23T11:15:35.177Z,17.52
2022-09-23T11:16:36.633Z,17.54
2022-09-23T11:17:55.816Z,17.54
2022-09-23T11:18:57.122Z,17.59
2022-09-23T11:20:01.447Z,17.63
2022-09-23T11:21:20.118Z,17.70
2022-09-23T11:22:27.615Z,17.79
2022-09-23T11:23:47.889Z,18.01
2022-09-23T11:25:15.434Z,17.97
2022-09-23T11:26:39.302Z,17.95
2022-09-23T11:27:52.993Z,17.86
2022-09-23T11:29:09.910Z,17.90
2022-09-23T11:30:16.744Z,17.88
2022-09-23T11:31:41.393Z,17.87
2022-09-23T11:33:21.561Z,17.78
2022-09-23T11:34:34.366Z,17.81
2022-09-23T11:35:47.872Z,17.76
2022-09-23T11:36:56.519Z,17.75
2022-09-23T11:37:57.819Z,17.74
2022-09-23T11:39:01.227Z,17.74
2022-09-23T11:40:06.134Z,17.72
2022-09-23T11:41:19.967Z,17.71
2022-09-23T11:42:23.801Z,17.75
2022-09-23T11:43:26.503Z,17.81
2022-09-23T11:44:31.206Z,17.79
2022-09-23T11:45:52.880Z,17.78
2022-09-23T11:46:58.230Z,17.80
2022-09-23T11:48:12.336Z,17.85
2022-09-23T11:49:19.413Z,17.83
2022-09-23T11:50:25.322Z,17.83
2022-09-23T11:51:32.972Z,17.87
2022-09-23T11:52:36.488Z,17.94
2022-09-23T11:53:40.861Z,17.98
2022-09-23T11:54:42.172Z,18.01
2022-09-23T11:55:58.250Z,18.05
2022-09-23T11:57:02.634Z,18.09
2022-09-23T11:58:25.352Z,18.09
2022-09-23T11:59:40.518Z,18.15
2022-09-23T12:00:49.609Z,18.19
2022-09-23T12:02:04.736Z,18.21
2022-09-23T12:03:16.329Z,18.21
2022-09-23T12:04:21.427Z,18.17
2022-09-23T12:05:25.258Z,18.23
2022-09-23T12:06:40.400Z,18.30
2022-09-23T12:07:50.038Z,18.32
2022-09-23T12:08:54.098Z,18.25
2022-09-23T12:10:03.298Z,18.26
2022-09-23T12:11:23.606Z,18.27
2022-09-23T12:12:50.969Z,18.32
2022-09-23T12:14:12.874Z,18.34
2022-09-23T12:15:17.030Z,18.45
2022-09-23T12:16:37.196Z,18.41
2022-09-23T12:17:38.575Z,18.43
2022-09-23T12:18:58.834Z,18.45
2022-09-23T12:20:09.510Z,18.36
2022-09-23T12:21:27.089Z,18.39
2022-09-23T12:22:51.293Z,18.34
2022-09-23T12:23:55.480Z,18.41
2022-09-23T12:25:10.300Z,18.38
2022-09-23T12:26:17.761Z,18.40
2022-09-23T12:27:24.223Z,18.36
2022-09-23T12:28:27.727Z,18.32
2022-09-23T12:29:30.466Z,18.32
2022-09-23T12:30:34.397Z,18.32
2022-09-23T12:31:41.066Z,18.39
2022-09-23T12:32:44.624Z,18.35
2022-09-23T12:33:55.003Z,18.34
2022-09-23T12:34:56.393Z,18.36
2022-09-23T12:36:08.106Z,18.37
2022-09-23T12:37:09.441Z,18.39
2022-09-23T12:38:25.569Z,18.41
2022-09-23T12:39:29.742Z,18.43
2022-09-23T12:40:37.946Z,18.45
2022-09-23T12:41:40.817Z,18.47
2022-09-23T12:42:44.709Z,18.49
2022-09-23T12:43:53.318Z,18.58
2022-09-23T12:45:14.650Z,18.65
2022-09-23T12:46:16.804Z,18.81
2022-09-23T12:47:18.132Z,18.75
2022-09-23T12:48:19.427Z,18.70
2022-09-23T12:49:29.792Z,18.67
2022-09-23T12:50:49.635Z,18.74
2022-09-23T12:52:12.565Z,18.74
2022-09-23T12:53:49.119Z,18.70
2022-09-23T12:54:51.334Z,18.68
2022-09-23T12:55:53.335Z,18.66
2022-09-23T12:56:54.626Z,18.74
2022-09-23T12:57:55.988Z,18.73
2022-09-23T12:59:09.382Z,18.78
2022-09-23T13:00:19.768Z,18.80
2022-09-23T13:01:23.322Z,18.82
2022-09-23T13:02:27.433Z,18.85
2022-09-23T13:03:28.802Z,18.85
2022-09-23T13:04:42.292Z,18.86
2022-09-23T13:06:13.077Z,18.85
2022-09-23T13:07:16.065Z,18.95
2022-09-23T13:08:22.360Z,19.00
2022-09-23T13:09:26.680Z,19.01
2022-09-23T13:10:32.736Z,19.03
2022-09-23T13:11:37.030Z,19.07
2022-09-23T13:12:39.928Z,19.11
2022-09-23T13:13:42.974Z,19.13
2022-09-23T13:14:46.122Z,19.17
2022-09-23T13:15:47.672Z,19.17
2022-09-23T13:16:49.427Z,19.18
2022-09-23T13:17:50.847Z,19.20
2022-09-23T13:19:02.455Z,19.20
2022-09-23T13:20:24.058Z,19.29
2022-09-23T13:21:43.494Z,19.28
2022-09-23T13:22:50.520Z,19.30
2022-09-23T13:24:10.252Z,19.33
2022-09-23T13:25:22.893Z,19.33
2022-09-23T13:26:24.328Z,19.30
2022-09-23T13:27:33.808Z,19.29
2022-09-23T13:28:39.090Z,19.30
2022-09-23T13:29:50.781Z,19.31
2022-09-23T13:30:53.234Z,19.31
2022-09-23T13:31:55.992Z,19.29
2022-09-23T13:33:06.268Z,19.27
2022-09-23T13:34:07.977Z,19.26
2022-09-23T13:35:12.054Z,19.25
2022-09-23T13:36:14.698Z,19.25
2022-09-23T13:37:22.450Z,19.20
2022-09-23T13:38:25.574Z,19.26
2022-09-23T13:39:28.234Z,19.26
2022-09-23T13:40:30.277Z,19.28
2022-09-23T13:41:31.686Z,19.30
2022-09-23T13:42:33.340Z,19.35
2022-09-23T13:43:40.828Z,19.39
2022-09-23T13:44:42.625Z,19.40
2022-09-23T13:45:44.028Z,19.37
2022-09-23T13:46:50.117Z,19.48
2022-09-23T13:47:52.619Z,19.51
2022-09-23T13:48:54.935Z,19.48
2022-09-23T13:49:56.607Z,19.44
2022-09-23T13:50:58.251Z,19.45
2022-09-23T13:51:59.786Z,19.47
2022-09-23T13:53:02.823Z,19.46
2022-09-23T13:54:04.498Z,19.43
2022-09-23T13:55:06.169Z,19.40
2022-09-23T13:56:07.450Z,19.41
2022-09-23T13:57:23.979Z,19.47
2022-09-23T13:58:29.694Z,19.44
2022-09-23T13:59:36.931Z,19.44
2022-09-23T14:00:38.504Z,19.49
2022-09-23T14:01:40.184Z,19.53
2022-09-23T14:02:45.050Z,19.50
2022-09-23T14:03:46.439Z,19.54
2022-09-23T14:04:47.761Z,19.55
2022-09-23T14:05:49.569Z,19.59
2022-09-23T14:06:51.065Z,19.63
2022-09-23T14:07:53.608Z,19.68
2022-09-23T14:08:55.309Z,19.69
2022-09-23T14:09:56.651Z,19.70
2022-09-23T14:10:59.057Z,19.68
2022-09-23T14:12:00.755Z,19.63
2022-09-23T14:13:02.099Z,19.59
2022-09-23T14:14:03.952Z,19.56
2022-09-23T14:15:05.473Z,19.60